Main page
METAR-TAF:

METAR-TAF

Airports :

Aransas County Airport

Rockport, Texas, United States

latitude: 28-05-01N, longitude: 097-02-47W, elevation: 23 ft

Current weather observation

The report was made 1 hour and 6 minutes ago, at 22:53 UTC
Wind 9 mph from the Northeast
Temperature 75°F
Humidity 65%
Pressure 29.69 in. Hg
Visibility: 5 miles
Clear sky
haze

METAR: KRKP 252253Z AUTO 04008KT 5SM HZ CLR 24/17 A2969 RMK AO2 SLP054 T02390167

Time: 17:59 (23:59 UTC)


TAF: missing

Weather observations and forecasts of more than 4000 airports (METAR and TAF reports).

The available stations are represented by yellow and red dots on the map.

Hover mouse over dot to see the name of the station.

Then click to see weather observations and forecasts.

To change the map : click on the green buttons with a black cross to zoom in, on the green button with a dash to zoom out, or on the green arrows for adjacent maps.


METAR-TAF: